createdAt,value
2023-09-13T00:02:29.747Z,14.60
2023-09-13T00:06:12.308Z,14.60
2023-09-13T00:09:54.338Z,14.60
2023-09-13T00:13:36.438Z,14.50
2023-09-13T00:17:19.395Z,14.50
2023-09-13T00:21:01.507Z,14.50
2023-09-13T00:24:43.496Z,14.40
2023-09-13T00:28:25.704Z,14.40
2023-09-13T00:32:07.736Z,14.40
2023-09-13T00:35:49.748Z,14.30
2023-09-13T00:39:31.748Z,14.30
2023-09-13T00:43:13.924Z,14.20
2023-09-13T00:46:56.472Z,14.20
2023-09-13T00:50:51.305Z,14.20
2023-09-13T00:54:35.631Z,14.20
2023-09-13T00:58:19.451Z,14.20
2023-09-13T01:02:01.668Z,14.10
2023-09-13T01:05:45.173Z,14.10
2023-09-13T01:09:27.147Z,14.00
2023-09-13T01:13:09.584Z,14.00
2023-09-13T01:17:35.439Z,14.00
2023-09-13T01:21:20.456Z,14.00
2023-09-13T01:25:14.817Z,13.90
2023-09-13T01:28:57.895Z,13.90
2023-09-13T01:32:39.908Z,13.90
2023-09-13T01:36:21.947Z,13.80
2023-09-13T01:40:07.946Z,13.80
2023-09-13T01:43:55.379Z,13.70
2023-09-13T01:47:40.074Z,13.70
2023-09-13T01:51:23.029Z,13.60
2023-09-13T01:55:09.115Z,13.60
2023-09-13T01:58:51.844Z,13.50
2023-09-13T02:02:33.909Z,13.50
2023-09-13T02:06:16.024Z,13.50
2023-09-13T02:09:57.979Z,13.50
2023-09-13T02:13:40.089Z,13.60
2023-09-13T02:17:22.347Z,13.60
2023-09-13T02:21:04.509Z,13.60
2023-09-13T02:24:46.681Z,13.50
2023-09-13T02:28:29.130Z,13.50
2023-09-13T02:32:11.282Z,13.50
2023-09-13T02:35:53.327Z,13.40
2023-09-13T02:39:36.955Z,13.50
2023-09-13T02:43:19.015Z,13.50
2023-09-13T02:47:02.260Z,13.60
2023-09-13T02:50:44.281Z,13.60
2023-09-13T02:54:26.281Z,13.70
2023-09-13T02:58:09.969Z,13.70
2023-09-13T03:01:52.074Z,13.70
2023-09-13T03:05:34.374Z,13.80
2023-09-13T03:09:16.416Z,13.80
2023-09-13T03:12:58.463Z,13.80
2023-09-13T03:16:40.624Z,13.90
2023-09-13T03:20:22.840Z,13.90
2023-09-13T03:24:08.095Z,13.90
2023-09-13T03:27:52.585Z,13.90
2023-09-13T03:31:37.346Z,13.90
2023-09-13T03:35:19.430Z,13.90
2023-09-13T03:39:01.504Z,13.90
2023-09-13T03:42:43.451Z,13.90
2023-09-13T03:46:25.669Z,13.90
2023-09-13T03:50:07.949Z,13.90
2023-09-13T03:53:50.058Z,13.90
2023-09-13T03:57:32.044Z,13.90
2023-09-13T04:01:14.074Z,13.90
2023-09-13T04:04:56.278Z,13.90
2023-09-13T04:08:38.285Z,14.00
2023-09-13T04:12:20.296Z,13.90
2023-09-13T04:16:08.115Z,14.00
2023-09-13T04:19:50.205Z,13.90
2023-09-13T04:23:32.253Z,13.90
2023-09-13T04:27:23.195Z,13.90
2023-09-13T04:31:05.257Z,13.80
2023-09-13T04:34:47.873Z,13.60
2023-09-13T04:38:29.783Z,13.50
2023-09-13T04:42:12.745Z,13.50
2023-09-13T04:45:54.692Z,13.30
2023-09-13T04:49:37.728Z,13.30
2023-09-13T04:53:19.759Z,13.20
2023-09-13T04:57:01.770Z,13.00
2023-09-13T05:00:43.791Z,12.90
2023-09-13T05:04:25.915Z,12.80
2023-09-13T05:08:07.892Z,12.60
2023-09-13T05:11:49.851Z,12.50
2023-09-13T05:15:31.844Z,12.40
2023-09-13T05:19:13.989Z,12.40
2023-09-13T05:22:55.957Z,12.20
2023-09-13T05:26:38.768Z,12.20
2023-09-13T05:30:20.820Z,12.10
2023-09-13T05:34:03.341Z,12.00
2023-09-13T05:37:45.277Z,11.90
2023-09-13T05:41:27.237Z,11.80
2023-09-13T05:45:09.586Z,11.80
2023-09-13T05:48:51.570Z,11.70
2023-09-13T05:52:34.402Z,11.70
2023-09-13T05:56:16.480Z,11.60
2023-09-13T05:59:58.420Z,11.60
2023-09-13T06:03:40.465Z,11.60
2023-09-13T06:07:22.465Z,11.50
2023-09-13T06:11:04.499Z,11.50
2023-09-13T06:14:47.060Z,11.50
2023-09-13T06:18:29.971Z,11.50
2023-09-13T06:22:12.536Z,11.50
2023-09-13T06:25:54.573Z,11.60
2023-09-13T06:29:36.596Z,11.50
2023-09-13T06:33:35.981Z,11.60
2023-09-13T06:37:20.971Z,11.70
2023-09-13T06:41:04.149Z,11.80
2023-09-13T06:44:47.493Z,11.90
2023-09-13T06:48:34.159Z,12.10
2023-09-13T06:52:16.884Z,12.30
2023-09-13T06:56:22.992Z,12.50
2023-09-13T07:00:12.158Z,12.90
2023-09-13T07:03:59.600Z,13.20
2023-09-13T07:11:30.594Z,13.80
2023-09-13T07:15:12.974Z,14.10
2023-09-13T07:19:27.859Z,14.30
2023-09-13T07:23:10.583Z,14.60
2023-09-13T07:26:59.455Z,14.90
2023-09-13T07:39:21.237Z,15.90
2023-09-13T07:43:26.747Z,16.40
2023-09-13T07:55:44.204Z,17.40
2023-09-13T08:00:14.630Z,18.00
2023-09-13T08:04:49.992Z,18.30
2023-09-13T08:13:50.735Z,19.00
2023-09-13T08:17:44.165Z,18.90
2023-09-13T08:22:47.165Z,19.20
2023-09-13T08:26:40.644Z,19.50
2023-09-13T08:30:43.136Z,19.90
2023-09-13T08:38:33.302Z,20.10
2023-09-13T08:43:06.136Z,20.00
2023-09-13T08:47:01.826Z,19.50
2023-09-13T09:04:32.698Z,18.00
2023-09-13T09:08:23.767Z,18.00
2023-09-13T09:12:27.268Z,17.90
2023-09-13T09:16:16.271Z,17.80
2023-09-13T09:20:15.073Z,17.50
2023-09-13T09:24:08.128Z,17.60
2023-09-13T09:28:10.503Z,18.00
2023-09-13T09:36:41.869Z,18.90
2023-09-13T10:02:02.208Z,22.30
2023-09-13T10:06:32.250Z,24.20
2023-09-13T10:11:02.519Z,25.90
2023-09-13T10:38:27.565Z,22.30
2023-09-13T10:42:30.958Z,21.60
2023-09-13T10:55:21.025Z,20.80
2023-09-13T10:59:25.360Z,20.60
2023-09-13T11:25:31.101Z,19.40
2023-09-13T11:29:53.370Z,19.20
2023-09-13T11:38:54.678Z,19.00
2023-09-13T11:49:05.114Z,18.80
2023-09-13T11:53:32.728Z,18.80
2023-09-13T12:24:20.520Z,18.50
2023-09-13T12:28:26.789Z,18.50
2023-09-13T12:45:21.756Z,18.60
2023-09-13T12:54:21.646Z,18.80
2023-09-13T13:03:23.632Z,19.20
2023-09-13T13:12:23.816Z,19.40
2023-09-13T13:21:36.463Z,19.90
2023-09-13T13:25:55.075Z,20.30
2023-09-13T13:42:48.638Z,20.10
2023-09-13T13:56:15.581Z,20.00
2023-09-13T14:22:14.037Z,19.50
2023-09-13T14:31:16.652Z,19.70
2023-09-13T14:35:45.066Z,19.70
2023-09-13T17:16:47.275Z,18.50
2023-09-13T17:25:46.835Z,18.30
2023-09-13T17:48:22.796Z,18.20
2023-09-13T18:31:07.926Z,18.30
2023-09-13T18:34:49.972Z,18.20
2023-09-13T18:38:32.689Z,18.10
2023-09-13T18:42:14.687Z,18.00
2023-09-13T18:46:01.284Z,17.80
2023-09-13T18:49:43.499Z,17.60
2023-09-13T18:53:27.690Z,17.40
2023-09-13T18:57:11.286Z,17.20
2023-09-13T19:01:01.357Z,17.00
2023-09-13T19:04:43.488Z,16.80
2023-09-13T19:08:27.010Z,16.70
2023-09-13T19:12:09.121Z,16.60
2023-09-13T19:15:59.249Z,16.40
2023-09-13T19:19:41.482Z,16.30
2023-09-13T19:23:27.173Z,16.10
2023-09-13T19:27:09.226Z,16.00
2023-09-13T19:30:53.148Z,15.90
2023-09-13T19:34:35.384Z,15.80
2023-09-13T19:38:29.355Z,15.60
2023-09-13T19:42:12.773Z,15.60
2023-09-13T19:45:57.261Z,15.40
2023-09-13T19:49:39.326Z,15.30
2023-09-13T19:53:21.625Z,15.20
2023-09-13T19:57:04.774Z,15.20
2023-09-13T20:00:48.825Z,15.10
2023-09-13T20:04:32.942Z,15.00
2023-09-13T20:08:14.969Z,14.90
2023-09-13T20:12:05.153Z,14.80
2023-09-13T20:15:47.260Z,14.70
2023-09-13T20:19:29.354Z,14.70
2023-09-13T20:23:11.502Z,14.50
2023-09-13T20:26:53.624Z,14.50
2023-09-13T20:30:35.612Z,14.40
2023-09-13T20:34:19.849Z,14.40
2023-09-13T20:38:02.071Z,14.30
2023-09-13T20:41:44.263Z,14.20
2023-09-13T20:45:26.332Z,14.10
2023-09-13T20:49:08.504Z,14.00
2023-09-13T20:52:50.527Z,14.00
2023-09-13T20:56:32.572Z,13.90
2023-09-13T21:00:15.092Z,13.90
2023-09-13T21:03:57.155Z,13.80
2023-09-13T21:07:39.631Z,13.70
2023-09-13T21:11:21.570Z,13.70
2023-09-13T21:15:03.756Z,13.60
2023-09-13T21:18:46.108Z,13.60
2023-09-13T21:22:28.306Z,13.50
2023-09-13T21:26:10.262Z,13.50
2023-09-13T21:29:52.777Z,13.50
2023-09-13T21:33:34.768Z,13.40
2023-09-13T21:37:17.007Z,13.40
2023-09-13T21:40:59.067Z,13.30
2023-09-13T21:44:41.041Z,13.30
2023-09-13T21:48:24.805Z,13.30
2023-09-13T21:52:06.988Z,13.20
2023-09-13T21:55:49.126Z,13.10
2023-09-13T21:59:31.120Z,13.10
2023-09-13T22:03:13.292Z,13.10
2023-09-13T22:06:55.402Z,13.00
2023-09-13T22:10:37.540Z,13.00
2023-09-13T22:14:19.604Z,13.00
2023-09-13T22:18:01.609Z,13.00
2023-09-13T22:21:43.716Z,12.90
2023-09-13T22:25:25.683Z,12.80
2023-09-13T22:29:07.938Z,12.90
2023-09-13T22:32:49.940Z,12.80
2023-09-13T22:36:32.223Z,12.80
2023-09-13T22:40:14.253Z,12.70
2023-09-13T22:43:56.265Z,12.70
2023-09-13T22:47:38.649Z,12.70
2023-09-13T22:51:20.669Z,12.60
2023-09-13T22:55:02.770Z,12.60
2023-09-13T22:58:45.434Z,12.60
2023-09-13T23:02:27.685Z,12.50
2023-09-13T23:06:09.688Z,12.50
2023-09-13T23:09:51.666Z,12.40
2023-09-13T23:13:33.691Z,12.40
2023-09-13T23:17:17.519Z,12.40
2023-09-13T23:20:59.539Z,12.40
2023-09-13T23:24:41.618Z,12.40
2023-09-13T23:28:23.643Z,12.40
2023-09-13T23:32:06.374Z,12.30
2023-09-13T23:35:48.387Z,12.30
2023-09-13T23:39:32.118Z,12.30
2023-09-13T23:43:14.690Z,12.30
2023-09-13T23:46:56.743Z,12.30
2023-09-13T23:50:38.708Z,12.30
2023-09-13T23:54:20.646Z,12.30
2023-09-13T23:58:02.736Z,12.20
